createdAt,value
2022-09-07T00:00:32.052Z,99280.53
2022-09-07T00:02:59.574Z,99276.34
2022-09-07T00:05:28.241Z,99285.81
2022-09-07T00:07:55.674Z,99274.38
2022-09-07T00:10:23.346Z,99284.31
2022-09-07T00:12:50.963Z,99289.78
2022-09-07T00:15:18.291Z,99287.59
2022-09-07T00:17:45.750Z,99280.94
2022-09-07T00:20:12.922Z,99276.97
2022-09-07T00:22:40.104Z,99271.63
2022-09-07T00:25:07.715Z,99269.13
2022-09-07T00:27:35.002Z,99274.94
2022-09-07T00:30:02.168Z,99267.56
2022-09-07T00:32:29.607Z,99262.56
2022-09-07T00:34:56.859Z,99256.63
2022-09-07T00:37:24.006Z,99264.00
2022-09-07T00:39:51.750Z,99265.47
2022-09-07T00:42:20.223Z,99249.41
2022-09-07T00:44:56.306Z,99265.00
2022-09-07T00:47:32.914Z,99262.37
2022-09-07T00:50:00.829Z,99263.16
2022-09-07T00:52:28.349Z,99261.59
2022-09-07T00:54:56.770Z,99256.56
2022-09-07T00:57:26.294Z,99256.19
2022-09-07T00:59:53.905Z,99255.81
2022-09-07T01:02:23.530Z,99259.88
2022-09-07T01:04:51.946Z,99260.97
2022-09-07T01:07:19.445Z,99264.59
2022-09-07T01:09:47.333Z,99260.84
2022-09-07T01:12:14.735Z,99255.91
2022-09-07T01:14:47.495Z,99258.28
2022-09-07T01:17:17.615Z,99256.34
2022-09-07T01:19:51.203Z,99256.94
2022-09-07T01:22:24.551Z,99259.78
2022-09-07T01:24:58.286Z,99256.06
2022-09-07T01:27:34.266Z,99244.88
2022-09-07T01:30:07.549Z,99247.53
2022-09-07T01:32:46.633Z,99246.97
2022-09-07T01:35:29.399Z,99257.50
2022-09-07T01:38:00.141Z,99249.59
2022-09-07T01:40:34.173Z,99255.19
2022-09-07T01:43:02.488Z,99248.41
2022-09-07T01:45:31.350Z,99249.06
2022-09-07T01:47:59.198Z,99240.16
2022-09-07T01:50:27.606Z,99242.88
2022-09-07T01:53:02.161Z,99236.22
2022-09-07T01:55:34.134Z,99238.97
2022-09-07T01:58:20.557Z,99242.59
2022-09-07T02:00:49.333Z,99241.00
2022-09-07T02:03:28.772Z,99224.56
2022-09-07T02:06:00.129Z,99242.56
2022-09-07T02:08:32.346Z,99242.25
2022-09-07T02:11:07.913Z,99228.63
2022-09-07T02:13:36.408Z,99228.84
2022-09-07T02:16:06.866Z,99239.94
2022-09-07T02:18:36.315Z,99234.34
2022-09-07T02:21:03.750Z,99238.69
2022-09-07T02:23:33.251Z,99226.78
2022-09-07T02:26:01.649Z,99223.53
2022-09-07T02:28:29.929Z,99228.41
2022-09-07T02:30:57.179Z,99226.81
2022-09-07T02:33:24.338Z,99220.34
2022-09-07T02:35:51.819Z,99218.88
2022-09-07T02:38:19.014Z,99219.22
2022-09-07T02:40:52.891Z,99216.66
2022-09-07T02:43:20.311Z,99215.72
2022-09-07T02:45:47.427Z,99212.28
2022-09-07T02:48:33.315Z,99216.84
2022-09-07T02:51:10.112Z,99218.63
2022-09-07T02:54:00.517Z,99201.25
2022-09-07T02:56:30.899Z,99203.78
2022-09-07T02:59:01.157Z,99210.63
2022-09-07T03:01:37.550Z,99201.16
2022-09-07T03:04:12.438Z,99209.84
2022-09-07T03:06:41.053Z,99200.41
2022-09-07T03:09:10.592Z,99208.50
2022-09-07T03:11:37.840Z,99206.81
2022-09-07T03:14:33.421Z,99207.81
2022-09-07T03:17:00.586Z,99193.53
2022-09-07T03:19:27.995Z,99199.84
2022-09-07T03:21:55.166Z,99206.16
2022-09-07T03:24:22.329Z,99198.31
2022-09-07T03:26:51.446Z,99199.31
2022-09-07T03:29:18.863Z,99197.84
2022-09-07T03:31:46.272Z,99201.31
2022-09-07T03:34:13.684Z,99189.78
2022-09-07T03:36:40.875Z,99196.34
2022-09-07T03:39:08.071Z,99192.31
2022-09-07T03:41:35.497Z,99204.22
2022-09-07T03:44:05.788Z,99202.03
2022-09-07T03:46:33.262Z,99198.94
2022-09-07T03:49:00.792Z,99204.72
2022-09-07T03:51:28.189Z,99201.34
2022-09-07T03:53:55.381Z,99204.38
2022-09-07T03:56:25.019Z,99211.09
2022-09-07T03:58:53.204Z,99211.09
2022-09-07T04:01:21.581Z,99202.94
2022-09-07T04:03:49.072Z,99214.00
2022-09-07T04:06:16.493Z,99216.97
2022-09-07T04:08:43.719Z,99212.31
2022-09-07T04:11:13.143Z,99216.44
2022-09-07T04:13:41.850Z,99211.75
2022-09-07T04:16:12.775Z,99219.06
2022-09-07T04:18:40.564Z,99222.69
2022-09-07T04:21:07.723Z,99209.72
2022-09-07T04:23:36.831Z,99220.06
2022-09-07T04:26:04.241Z,99229.75
2022-09-07T04:28:31.609Z,99224.72
2022-09-07T04:31:02.160Z,99224.88
2022-09-07T04:33:30.987Z,99223.72
2022-09-07T04:35:59.427Z,99235.09
2022-09-07T04:38:26.922Z,99239.97
2022-09-07T04:41:00.491Z,99247.41
2022-09-07T04:43:28.306Z,99251.38
2022-09-07T04:45:55.818Z,99251.31
2022-09-07T04:48:23.016Z,99240.38
2022-09-07T04:50:52.074Z,99238.03
2022-09-07T04:53:19.859Z,99245.78
2022-09-07T04:55:47.699Z,99241.47
2022-09-07T04:58:14.865Z,99236.81
2022-09-07T05:00:42.256Z,99248.25
2022-09-07T05:03:12.003Z,99242.84
2022-09-07T05:05:39.362Z,99237.22
2022-09-07T05:08:07.080Z,99245.22
2022-09-07T05:10:34.295Z,99235.84
2022-09-07T05:13:02.033Z,99235.19
2022-09-07T05:15:30.207Z,99247.25
2022-09-07T05:17:57.910Z,99239.75
2022-09-07T05:20:25.311Z,99247.91
2022-09-07T05:22:59.549Z,99247.31
2022-09-07T05:25:27.984Z,99252.00
2022-09-07T05:27:55.434Z,99252.75
2022-09-07T05:33:10.015Z,99258.47
2022-09-07T05:35:37.201Z,99264.63
2022-09-07T05:38:04.370Z,99257.91
2022-09-07T05:40:33.589Z,99263.16
2022-09-07T05:43:02.321Z,99266.00
2022-09-07T05:45:29.608Z,99263.22
2022-09-07T05:47:57.078Z,99266.00
2022-09-07T05:50:24.265Z,99264.09
2022-09-07T05:52:51.419Z,99261.75
2022-09-07T05:55:30.102Z,99269.16
2022-09-07T05:57:57.848Z,99275.72
2022-09-07T06:00:25.280Z,99282.03
2022-09-07T06:02:52.758Z,99274.66
2022-09-07T06:05:19.965Z,99268.22
2022-09-07T06:07:48.135Z,99273.97
2022-09-07T06:13:02.770Z,99273.50
2022-09-07T06:15:31.885Z,99273.09
2022-09-07T06:17:59.063Z,99276.16
2022-09-07T06:20:26.342Z,99277.47
2022-09-07T06:22:55.917Z,99290.81
2022-09-07T06:25:23.082Z,99281.66
2022-09-07T06:27:50.231Z,99274.78
2022-09-07T06:30:17.773Z,99270.78
2022-09-07T06:32:45.191Z,99273.84
2022-09-07T06:35:12.777Z,99279.38
2022-09-07T06:37:40.262Z,99277.91
2022-09-07T06:40:07.978Z,99265.28
2022-09-07T06:42:36.256Z,99272.78
2022-09-07T06:45:04.173Z,99274.53
2022-09-07T06:47:31.402Z,99271.97
2022-09-07T06:49:59.161Z,99263.69
2022-09-07T06:52:27.357Z,99272.97
2022-09-07T06:57:24.609Z,99263.63
2022-09-07T06:59:52.060Z,99265.91
2022-09-07T07:02:19.571Z,99259.09
2022-09-07T07:04:46.754Z,99262.97
2022-09-07T07:07:14.345Z,99265.62
2022-09-07T07:09:41.782Z,99267.81
2022-09-07T07:12:09.714Z,99270.56
2022-09-07T07:14:39.782Z,99268.56
2022-09-07T07:17:10.997Z,99273.12
2022-09-07T07:19:38.409Z,99274.09
2022-09-07T07:22:18.619Z,99282.25
2022-09-07T07:24:53.141Z,99275.81
2022-09-07T07:27:21.600Z,99271.78
2022-09-07T07:29:48.759Z,99279.91
2022-09-07T07:32:16.187Z,99269.78
2022-09-07T07:34:43.314Z,99273.47
2022-09-07T07:37:10.446Z,99274.31
2022-09-07T07:42:25.142Z,99268.97
2022-09-07T07:47:39.817Z,99269.28
2022-09-07T07:55:43.236Z,99276.34
2022-09-07T07:58:10.832Z,99267.47
2022-09-07T08:00:53.652Z,99269.00
2022-09-07T08:03:22.426Z,99257.94
2022-09-07T08:05:49.650Z,99265.09
2022-09-07T08:08:16.831Z,99264.50
2022-09-07T08:10:46.006Z,99270.34
2022-09-07T08:13:14.167Z,99272.41
2022-09-07T08:15:44.597Z,99271.84
2022-09-07T08:18:12.639Z,99275.94
2022-09-07T08:20:40.259Z,99276.34
2022-09-07T08:23:08.303Z,99264.28
2022-09-07T08:25:35.786Z,99269.37
2022-09-07T08:28:03.120Z,99265.88
2022-09-07T08:30:30.222Z,99266.56
2022-09-07T08:32:57.616Z,99268.22
2022-09-07T08:35:24.700Z,99276.59
2022-09-07T08:37:51.796Z,99270.09
2022-09-07T08:40:19.584Z,99263.22
2022-09-07T08:43:05.599Z,99262.47
2022-09-07T08:45:34.417Z,99264.56
2022-09-07T08:48:01.765Z,99261.41
2022-09-07T08:50:38.052Z,99254.75
2022-09-07T08:53:09.337Z,99266.88
2022-09-07T08:55:37.600Z,99260.69
2022-09-07T08:58:14.563Z,99255.22
2022-09-07T09:01:30.783Z,99253.19
2022-09-07T09:06:35.354Z,99247.31
2022-09-07T09:09:05.631Z,99242.69
2022-09-07T09:11:51.585Z,99248.00
2022-09-07T09:14:18.709Z,99255.34
2022-09-07T09:16:47.123Z,99249.88
2022-09-07T09:19:29.505Z,99255.66
2022-09-07T09:22:02.362Z,99252.53
2022-09-07T09:24:30.949Z,99253.91
2022-09-07T09:26:58.417Z,99245.19
2022-09-07T09:29:25.528Z,99255.31
2022-09-07T09:31:53.575Z,99247.91
2022-09-07T09:34:24.052Z,99247.47
2022-09-07T09:36:53.868Z,99235.97
2022-09-07T09:39:28.477Z,99236.00
2022-09-07T09:41:56.104Z,99235.06
2022-09-07T09:44:23.482Z,99236.38
2022-09-07T09:47:29.687Z,99239.91
2022-09-07T09:49:40.606Z,99237.00
2022-09-07T09:52:41.780Z,99230.25
2022-09-07T09:55:33.332Z,99234.34
2022-09-07T10:01:21.136Z,99223.06
2022-09-07T10:06:16.391Z,99224.78
2022-09-07T10:09:10.030Z,99218.16
2022-09-07T10:14:34.854Z,99224.34
2022-09-07T10:17:09.294Z,99217.72
2022-09-07T10:19:37.727Z,99214.84
2022-09-07T10:22:21.854Z,99210.13
2022-09-07T10:24:50.219Z,99208.47
2022-09-07T10:27:37.171Z,99204.25
2022-09-07T10:30:09.919Z,99207.56
2022-09-07T10:32:36.947Z,99214.31
2022-09-07T10:35:23.176Z,99208.66
2022-09-07T10:37:56.425Z,99215.63
2022-09-07T10:40:26.149Z,99208.91
2022-09-07T10:43:25.883Z,99207.09
2022-09-07T10:45:56.035Z,99210.59
2022-09-07T10:48:35.954Z,99202.81
2022-09-07T10:51:13.410Z,99202.00
2022-09-07T10:57:03.758Z,99206.75
2022-09-07T11:02:30.619Z,99198.16
2022-09-07T11:05:00.386Z,99199.69
2022-09-07T11:07:46.744Z,99201.25
2022-09-07T11:10:13.821Z,99201.28
2022-09-07T11:12:43.260Z,99198.47
2022-09-07T11:15:10.384Z,99199.72
2022-09-07T11:17:43.628Z,99194.31
2022-09-07T11:20:18.086Z,99196.25
2022-09-07T11:23:04.126Z,99179.69
2022-09-07T11:25:33.958Z,99184.84
2022-09-07T11:28:09.055Z,99186.81
2022-09-07T11:30:37.465Z,99191.78
2022-09-07T11:33:10.540Z,99179.97
2022-09-07T11:35:50.158Z,99183.56
2022-09-07T11:38:30.509Z,99179.56
2022-09-07T11:41:08.191Z,99172.50
2022-09-07T11:43:36.788Z,99174.81
2022-09-07T11:46:05.789Z,99171.09
2022-09-07T11:48:34.060Z,99163.53
2022-09-07T11:51:03.370Z,99170.16
2022-09-07T11:53:34.681Z,99171.63
2022-09-07T11:56:25.213Z,99163.69
2022-09-07T11:59:21.910Z,99160.66
2022-09-07T12:01:53.207Z,99165.78
2022-09-07T12:04:29.365Z,99161.41
2022-09-07T12:07:02.238Z,99152.12
2022-09-07T12:09:52.242Z,99149.06
2022-09-07T12:12:38.215Z,99152.38
2022-09-07T12:15:17.846Z,99150.78
2022-09-07T12:17:47.763Z,99150.78
2022-09-07T12:20:26.134Z,99157.88
2022-09-07T12:23:04.848Z,99148.31
2022-09-07T12:25:33.701Z,99152.63
2022-09-07T12:28:00.992Z,99150.03
2022-09-07T12:30:30.134Z,99150.06
2022-09-07T12:32:58.803Z,99141.88
2022-09-07T12:35:29.833Z,99142.63
2022-09-07T12:38:00.349Z,99147.34
2022-09-07T12:40:30.630Z,99149.69
2022-09-07T12:43:12.965Z,99142.63
2022-09-07T12:45:40.407Z,99146.03
2022-09-07T12:48:16.636Z,99137.72
2022-09-07T12:50:51.090Z,99137.34
2022-09-07T12:53:20.931Z,99132.34
2022-09-07T12:56:18.145Z,99135.28
2022-09-07T12:58:56.126Z,99126.50
2022-09-07T13:01:35.717Z,99140.34
2022-09-07T13:04:09.159Z,99124.16
2022-09-07T13:07:02.617Z,99128.94
2022-09-07T13:09:33.361Z,99128.44
2022-09-07T13:12:01.372Z,99120.84
2022-09-07T13:14:28.867Z,99119.69
2022-09-07T13:17:16.417Z,99111.59
2022-09-07T13:19:46.802Z,99115.25
2022-09-07T13:22:43.271Z,99109.09
2022-09-07T13:25:24.742Z,99108.66
2022-09-07T13:27:51.855Z,99107.44
2022-09-07T13:30:23.631Z,99108.00
2022-09-07T13:35:38.249Z,99101.69
2022-09-07T13:38:05.385Z,99088.88
2022-09-07T13:40:38.055Z,99090.25
2022-09-07T13:43:05.411Z,99087.37
2022-09-07T13:45:46.879Z,99091.81
2022-09-07T13:48:14.260Z,99084.97
2022-09-07T13:50:45.761Z,99086.56
2022-09-07T13:53:28.346Z,99069.75
2022-09-07T13:55:55.765Z,99080.31
2022-09-07T13:58:26.370Z,99080.34
2022-09-07T14:00:57.739Z,99073.97
2022-09-07T14:03:25.788Z,99078.09
2022-09-07T14:06:11.378Z,99073.91
2022-09-07T14:08:39.884Z,99065.81
2022-09-07T14:11:23.637Z,99075.62
2022-09-07T14:14:09.904Z,99067.75
2022-09-07T14:16:37.357Z,99059.25
2022-09-07T14:19:11.733Z,99071.16
2022-09-07T14:21:38.983Z,99067.50
2022-09-07T14:24:26.721Z,99076.84
2022-09-07T14:26:54.042Z,99080.09
2022-09-07T14:29:25.710Z,99074.06
2022-09-07T14:31:52.894Z,99078.09
2022-09-07T14:34:21.853Z,99071.97
2022-09-07T14:36:49.379Z,99063.59
2022-09-07T14:39:17.362Z,99055.84
2022-09-07T14:41:44.690Z,99062.28
2022-09-07T14:44:31.916Z,99059.00
2022-09-07T14:46:59.752Z,99063.03
2022-09-07T14:49:28.736Z,99056.81
2022-09-07T14:51:56.096Z,99057.53
2022-09-07T14:54:25.925Z,99066.56
2022-09-07T14:57:01.117Z,99059.00
2022-09-07T14:59:30.845Z,99055.91
2022-09-07T15:02:17.037Z,99054.38
2022-09-07T15:04:53.052Z,99054.31
2022-09-07T15:07:29.434Z,99061.81
2022-09-07T15:09:56.541Z,99057.63
2022-09-07T15:12:36.513Z,99057.44
2022-09-07T15:15:11.550Z,99057.00
2022-09-07T15:17:46.205Z,99059.25
2022-09-07T15:20:32.666Z,99053.34
2022-09-07T15:23:00.791Z,99051.25
2022-09-07T15:25:28.961Z,99046.19
2022-09-07T15:27:56.037Z,99050.31
2022-09-07T15:30:24.750Z,99047.53
2022-09-07T15:32:51.965Z,99048.87
2022-09-07T15:35:19.102Z,99051.25
2022-09-07T15:38:03.171Z,99056.50
2022-09-07T15:40:33.262Z,99060.00
2022-09-07T15:43:02.055Z,99059.00
2022-09-07T15:45:32.192Z,99059.34
2022-09-07T15:47:59.326Z,99059.97
2022-09-07T15:50:26.673Z,99062.28
2022-09-07T15:52:53.822Z,99066.44
2022-09-07T15:55:20.932Z,99065.19
2022-09-07T15:57:50.152Z,99064.72
2022-09-07T16:00:22.499Z,99072.53
2022-09-07T16:03:06.454Z,99068.12
2022-09-07T16:05:34.470Z,99069.47
2022-09-07T16:11:05.846Z,99067.62
2022-09-07T16:13:33.770Z,99059.97
2022-09-07T16:16:02.014Z,99064.25
2022-09-07T16:18:31.754Z,99056.56
2022-09-07T16:21:11.752Z,99062.81
2022-09-07T16:23:40.765Z,99064.25
2022-09-07T16:26:09.244Z,99064.25
2022-09-07T16:28:40.194Z,99070.84
2022-09-07T16:31:08.854Z,99058.63
2022-09-07T16:33:37.211Z,99058.41
2022-09-07T16:36:06.201Z,99052.31
2022-09-07T16:38:49.344Z,99052.53
2022-09-07T16:41:27.426Z,99046.78
2022-09-07T16:43:55.051Z,99046.94
2022-09-07T16:46:23.296Z,99036.94
2022-09-07T16:48:50.650Z,99039.88
2022-09-07T16:51:20.533Z,99028.91
2022-09-07T16:53:48.920Z,99019.25
2022-09-07T16:56:17.206Z,99024.44
2022-09-07T16:58:48.807Z,99019.94
2022-09-07T17:01:17.095Z,99018.03
2022-09-07T17:03:44.853Z,99010.22
2022-09-07T17:06:13.362Z,99004.34
2022-09-07T17:08:40.609Z,99009.94
2022-09-07T17:11:09.065Z,99013.38
2022-09-07T17:13:36.741Z,99008.50
2022-09-07T17:16:08.019Z,99008.00
2022-09-07T17:21:22.579Z,99012.88
2022-09-07T17:23:55.094Z,99013.84
2022-09-07T17:26:23.711Z,99018.09
2022-09-07T17:28:54.778Z,99019.19
2022-09-07T17:34:11.283Z,99033.66
2022-09-07T17:36:38.394Z,99029.94
2022-09-07T17:39:20.962Z,99036.91
2022-09-07T17:41:48.656Z,99033.75
2022-09-07T17:44:15.829Z,99039.19
2022-09-07T17:46:43.394Z,99044.28
2022-09-07T17:49:14.083Z,99042.38
2022-09-07T17:51:41.452Z,99046.38
2022-09-07T17:54:11.733Z,99048.19
2022-09-07T17:56:40.123Z,99052.34
2022-09-07T18:01:55.641Z,99051.62
2022-09-07T18:04:23.526Z,99058.97
2022-09-07T18:06:51.349Z,99055.94
2022-09-07T18:09:20.051Z,99060.59
2022-09-07T18:11:49.361Z,99069.88
2022-09-07T18:14:17.442Z,99066.22
2022-09-07T18:16:45.474Z,99065.03
2022-09-07T18:19:13.531Z,99069.00
2022-09-07T18:21:42.404Z,99066.22
2022-09-07T18:24:18.036Z,99073.72
2022-09-07T18:26:50.392Z,99076.97
2022-09-07T18:29:28.748Z,99076.63
2022-09-07T18:31:57.735Z,99071.63
2022-09-07T18:34:25.349Z,99075.41
2022-09-07T18:36:52.576Z,99072.78
2022-09-07T18:39:20.301Z,99070.00
2022-09-07T18:41:47.819Z,99068.72
2022-09-07T18:47:03.113Z,99067.72
2022-09-07T18:49:30.624Z,99073.31
2022-09-07T18:54:45.827Z,99061.00
2022-09-07T18:57:13.336Z,99058.22
2022-09-07T18:59:40.982Z,99055.13
2022-09-07T19:02:09.330Z,99059.59
2022-09-07T19:07:29.012Z,99057.75
2022-09-07T19:09:57.586Z,99062.03
2022-09-07T19:12:25.417Z,99054.41
2022-09-07T19:14:52.948Z,99046.31
2022-09-07T19:17:20.808Z,99050.63
2022-09-07T19:19:48.989Z,99051.16
2022-09-07T19:22:16.519Z,99047.16
2022-09-07T19:24:43.998Z,99051.03
2022-09-07T19:27:11.791Z,99050.63
2022-09-07T19:29:39.287Z,99052.66
2022-09-07T19:32:07.976Z,99049.13
2022-09-07T19:34:36.548Z,99053.63
2022-09-07T19:37:04.595Z,99041.31
2022-09-07T19:39:32.211Z,99048.28
2022-09-07T19:42:02.248Z,99051.09
2022-09-07T19:44:30.023Z,99053.22
2022-09-07T19:46:57.624Z,99052.47
2022-09-07T19:49:25.423Z,99059.22
2022-09-07T19:51:52.903Z,99053.84
2022-09-07T19:54:20.407Z,99056.31
2022-09-07T19:56:48.278Z,99050.19
2022-09-07T19:59:16.023Z,99050.25
2022-09-07T20:01:46.519Z,99048.84
2022-09-07T20:04:19.607Z,99044.34
2022-09-07T20:06:50.276Z,99048.53
2022-09-07T20:09:18.666Z,99050.56
2022-09-07T20:11:47.926Z,99051.34
2022-09-07T20:14:16.238Z,99052.16
2022-09-07T20:16:46.835Z,99050.88
2022-09-07T20:19:17.690Z,99053.88
2022-09-07T20:21:45.441Z,99049.91
2022-09-07T20:24:12.889Z,99053.03
2022-09-07T20:26:40.204Z,99050.47
2022-09-07T20:31:55.300Z,99046.59
2022-09-07T20:34:22.825Z,99043.63
2022-09-07T20:36:50.554Z,99043.41
2022-09-07T20:39:17.909Z,99043.50
2022-09-07T20:41:45.502Z,99047.87
2022-09-07T20:44:12.744Z,99044.28
2022-09-07T20:46:39.922Z,99031.56
2022-09-07T20:49:07.434Z,99039.59
2022-09-07T20:51:35.264Z,99031.25
2022-09-07T20:54:02.395Z,99040.00
2022-09-07T20:56:30.853Z,99032.41
2022-09-07T20:59:00.170Z,99027.28
2022-09-07T21:01:27.840Z,99030.16
2022-09-07T21:03:56.550Z,99034.00
2022-09-07T21:06:24.073Z,99033.87
2022-09-07T21:08:51.286Z,99024.25
2022-09-07T21:11:22.888Z,99025.22
2022-09-07T21:14:00.040Z,99024.56
2022-09-07T21:16:28.159Z,99017.72
2022-09-07T21:18:56.147Z,99022.53
2022-09-07T21:21:23.782Z,99012.28
2022-09-07T21:23:55.067Z,99016.44
2022-09-07T21:26:22.381Z,99015.50
2022-09-07T21:28:54.108Z,99013.88
2022-09-07T21:31:21.732Z,99015.38
2022-09-07T21:33:55.976Z,99014.75
2022-09-07T21:36:26.203Z,99011.66
2022-09-07T21:38:54.525Z,99011.41
2022-09-07T21:41:23.147Z,99010.13
2022-09-07T21:43:57.714Z,99012.81
2022-09-07T21:46:28.494Z,99022.72
2022-09-07T21:48:56.402Z,99022.09
2022-09-07T21:51:23.685Z,99017.94
2022-09-07T21:53:52.117Z,99015.56
2022-09-07T21:56:19.610Z,99012.91
2022-09-07T21:58:47.213Z,99011.50
2022-09-07T22:01:17.875Z,99007.88
2022-09-07T22:03:46.579Z,99012.59
2022-09-07T22:06:14.401Z,99007.75
2022-09-07T22:08:41.794Z,99014.44
2022-09-07T22:11:10.687Z,99018.53
2022-09-07T22:13:37.954Z,99023.97
2022-09-07T22:16:05.262Z,99019.78
2022-09-07T22:18:32.699Z,99016.34
2022-09-07T22:21:04.160Z,99018.37
2022-09-07T22:23:32.319Z,99017.37
2022-09-07T22:25:59.762Z,99022.88
2022-09-07T22:28:28.567Z,99015.09
2022-09-07T22:30:55.945Z,99010.72
2022-09-07T22:33:23.362Z,99011.91
2022-09-07T22:35:50.639Z,99017.19
2022-09-07T22:38:17.753Z,99013.97
2022-09-07T22:40:45.121Z,99017.19
2022-09-07T22:43:12.275Z,99026.53
2022-09-07T22:45:39.467Z,99013.56
2022-09-07T22:48:06.974Z,99005.16
2022-09-07T22:50:34.085Z,99011.88
2022-09-07T22:53:01.227Z,99000.88
2022-09-07T22:55:28.576Z,99004.78
2022-09-07T22:57:55.718Z,98999.69
2022-09-07T23:00:22.818Z,98989.34
2022-09-07T23:02:50.220Z,98985.03
2022-09-07T23:05:17.348Z,98992.53
2022-09-07T23:07:44.503Z,98986.50
2022-09-07T23:10:14.189Z,98982.06
2022-09-07T23:12:41.302Z,98981.38
2022-09-07T23:15:08.615Z,98978.97
2022-09-07T23:17:35.993Z,98976.16
2022-09-07T23:20:03.160Z,98975.00
2022-09-07T23:22:30.325Z,98967.84
2022-09-07T23:24:57.690Z,98965.47
2022-09-07T23:27:24.801Z,98968.97
2022-09-07T23:29:52.052Z,98966.50
2022-09-07T23:32:19.452Z,98960.31
2022-09-07T23:34:47.376Z,98951.16
2022-09-07T23:37:14.474Z,98950.97
2022-09-07T23:39:41.994Z,98943.50
2022-09-07T23:42:09.170Z,98943.41
2022-09-07T23:44:36.293Z,98944.69
2022-09-07T23:47:03.673Z,98939.47
2022-09-07T23:49:30.769Z,98943.38
2022-09-07T23:51:57.898Z,98942.50
2022-09-07T23:54:25.245Z,98943.00
2022-09-07T23:56:52.368Z,98944.38
2022-09-07T23:59:19.472Z,98947.53
